首页
METAR-TAF:

METAR-TAF

机场 :

Meridian Regional Airport (Key Field)

子午线, 密西西比州, 美国

纬度: 32-20-17N, 经度: 088-44-52W, 海拔: 90米

当前天气观测

该预报发布于25分钟前的23:58 UTC
风速5节,风向
温度 14°C
湿度 41%
气压 1026 hPa
能見度: 16.1公里
天空无云

METAR: KMEI 182358Z 01005KT 10SM CLR 14/01 A3029 RMK AO2 SLP257 T01440006 10200 20144 53007

时间: 19:23 (00:23 UTC)

预报

该预报发布于54分钟前的23:29 UTC
预报有效从19日的 00点(UTC)到 19日的 24点(UTC)
风速7节,风向北转东北
能見度: 10公里
阴天层高于25000英尺
从 19日的 1500点(UTC)
风速7节,风向东转东北
能見度: 10公里
少量云层高于25000英尺

TAF: KMEI 182329Z 1900/1924 02007KT P6SM OVC250 FM191500 06007KT P6SM FEW250

超过4000个机场的气象观测和天气预报(METAR&TAF报告)。

可查询的气象台以黄色和红色小点在地图上表示。

将鼠标移到小点上方,可查看气象台名称。

然后点击查看天气观测和预报。

如需切换地图:点击带黑十字的绿色按钮放大地图;点击带横线的绿色按钮缩小地图;或者点击绿色箭头查看邻近地区的地图。


METAR-TAF: